createdAt,value
2018-12-08T00:01:15.729Z,20.97
2018-12-08T00:03:42.219Z,18.30
2018-12-08T00:06:08.563Z,23.37
2018-12-08T00:08:34.976Z,21.93
2018-12-08T00:11:01.390Z,14.23
2018-12-08T00:13:27.805Z,13.07
2018-12-08T00:15:54.187Z,15.07
2018-12-08T00:18:20.654Z,13.23
2018-12-08T00:20:47.073Z,14.87
2018-12-08T00:23:13.470Z,13.93
2018-12-08T00:25:40.087Z,11.30
2018-12-08T00:28:06.466Z,13.13
2018-12-08T00:30:44.843Z,10.83
2018-12-08T00:33:11.235Z,10.17
2018-12-08T00:35:37.591Z,9.63
2018-12-08T00:38:03.981Z,8.70
2018-12-08T00:40:30.426Z,6.03
2018-12-08T00:42:56.975Z,7.07
2018-12-08T00:45:23.382Z,7.47
2018-12-08T00:47:49.922Z,8.73
2018-12-08T00:50:16.367Z,6.27
2018-12-08T00:52:43.021Z,6.33
2018-12-08T00:55:09.479Z,8.93
2018-12-08T00:57:35.940Z,5.50
2018-12-08T01:00:03.077Z,5.93
2018-12-08T01:02:29.541Z,3.97
2018-12-08T01:04:55.984Z,6.57
2018-12-08T01:07:22.592Z,4.67
2018-12-08T01:09:48.999Z,4.17
2018-12-08T01:12:15.455Z,4.70
2018-12-08T01:14:41.844Z,3.13
2018-12-08T01:17:08.243Z,4.27
2018-12-08T01:19:34.595Z,3.83
2018-12-08T01:22:00.951Z,4.70
2018-12-08T01:24:27.367Z,3.17
2018-12-08T01:26:53.855Z,3.43
2018-12-08T01:29:20.218Z,4.30
2018-12-08T01:34:41.227Z,4.13
2018-12-08T01:37:07.583Z,5.47
2018-12-08T01:39:34.211Z,4.13
2018-12-08T01:42:00.566Z,3.60
2018-12-08T01:44:26.965Z,3.33
2018-12-08T01:46:53.291Z,3.73
2018-12-08T01:49:19.644Z,3.00
2018-12-08T01:51:46.003Z,5.37
2018-12-08T01:54:12.382Z,4.10
2018-12-08T01:56:38.888Z,4.67
2018-12-08T01:59:05.427Z,2.97
2018-12-08T02:01:32.573Z,4.00
2018-12-08T02:03:58.994Z,3.63
2018-12-08T02:06:25.452Z,3.73
2018-12-08T02:08:51.780Z,2.20
2018-12-08T02:11:24.880Z,3.37
2018-12-08T02:13:47.439Z,3.10
2018-12-08T02:16:13.814Z,3.97
2018-12-08T02:18:40.260Z,2.53
2018-12-08T02:21:06.613Z,2.53
2018-12-08T02:23:32.997Z,2.70
2018-12-08T02:25:59.578Z,15.07
2018-12-08T02:28:25.966Z,2.70
2018-12-08T02:30:52.304Z,2.23
2018-12-08T02:33:18.701Z,3.03
2018-12-08T02:35:45.083Z,2.33
2018-12-08T02:38:11.480Z,2.40
2018-12-08T02:40:37.911Z,3.17
2018-12-08T02:43:04.297Z,2.80
2018-12-08T02:45:30.728Z,2.40
2018-12-08T02:47:57.178Z,2.03
2018-12-08T02:50:23.595Z,2.20
2018-12-08T02:52:49.972Z,2.00
2018-12-08T02:55:16.339Z,1.70
2018-12-08T02:57:42.913Z,1.63
2018-12-08T03:00:09.592Z,3.33
2018-12-08T03:02:35.923Z,2.70
2018-12-08T03:05:02.660Z,1.37
2018-12-08T03:07:29.130Z,1.33
2018-12-08T03:09:55.507Z,1.83
2018-12-08T03:12:22.004Z,1.73
2018-12-08T03:14:48.452Z,2.60
2018-12-08T03:17:14.833Z,1.73
2018-12-08T03:19:41.299Z,1.30
2018-12-08T03:22:07.730Z,1.30
2018-12-08T03:24:34.132Z,1.50
2018-12-08T03:27:00.585Z,1.30
2018-12-08T03:29:26.925Z,1.07
2018-12-08T03:31:53.346Z,1.47
2018-12-08T03:34:19.797Z,1.13
2018-12-08T03:36:46.173Z,2.67
2018-12-08T03:39:12.606Z,2.07
2018-12-08T03:41:39.976Z,2.27
2018-12-08T03:44:06.409Z,1.00
2018-12-08T03:46:32.778Z,1.10
2018-12-08T03:48:59.134Z,1.17
2018-12-08T03:51:25.531Z,1.10
2018-12-08T03:53:51.880Z,1.50
2018-12-08T03:56:18.329Z,1.17
2018-12-08T03:58:44.797Z,1.03
2018-12-08T04:01:11.254Z,0.97
2018-12-08T04:03:37.591Z,0.80
2018-12-08T04:06:03.936Z,1.10
2018-12-08T04:08:30.263Z,1.47
2018-12-08T04:10:56.627Z,0.80
2018-12-08T04:13:23.019Z,0.93
2018-12-08T04:15:49.418Z,0.97
2018-12-08T04:18:15.816Z,1.37
2018-12-08T04:20:42.368Z,0.93
2018-12-08T04:23:08.713Z,0.93
2018-12-08T04:25:35.141Z,0.90
2018-12-08T04:28:01.587Z,0.90
2018-12-08T04:30:28.043Z,0.80
2018-12-08T04:32:54.455Z,0.80
2018-12-08T04:35:20.851Z,1.00
2018-12-08T04:37:47.244Z,1.77
2018-12-08T04:40:13.675Z,0.60
2018-12-08T04:42:40.231Z,0.90
2018-12-08T04:45:06.584Z,0.80
2018-12-08T04:47:32.902Z,1.23
2018-12-08T04:49:59.293Z,1.50
2018-12-08T04:52:25.704Z,0.93
2018-12-08T04:54:52.070Z,0.77
2018-12-08T04:57:18.506Z,1.27
2018-12-08T04:59:45.090Z,0.73
2018-12-08T05:02:11.749Z,1.00
2018-12-08T05:04:38.210Z,1.10
2018-12-08T05:07:04.593Z,1.20
2018-12-08T05:09:30.982Z,1.90
2018-12-08T05:11:57.320Z,1.17
2018-12-08T05:14:23.707Z,1.40
2018-12-08T05:16:50.175Z,1.10
2018-12-08T05:19:17.083Z,1.90
2018-12-08T05:21:43.472Z,0.77
2018-12-08T05:24:09.804Z,1.20
2018-12-08T05:26:36.251Z,1.27
2018-12-08T05:29:03.006Z,1.23
2018-12-08T05:31:29.469Z,1.07
2018-12-08T05:33:55.801Z,1.60
2018-12-08T05:36:22.440Z,1.37
2018-12-08T05:38:48.849Z,3.43
2018-12-08T05:41:15.238Z,1.00
2018-12-08T05:43:41.617Z,1.50
2018-12-08T05:46:08.067Z,2.83
2018-12-08T05:48:34.458Z,1.40
2018-12-08T05:51:00.855Z,1.37
2018-12-08T05:53:27.262Z,1.70
2018-12-08T05:55:53.686Z,1.20
2018-12-08T05:58:20.106Z,2.50
2018-12-08T06:00:46.546Z,1.50
2018-12-08T06:03:12.958Z,2.03
2018-12-08T06:05:39.331Z,1.77
2018-12-08T06:08:05.829Z,2.20
2018-12-08T06:10:32.282Z,1.50
2018-12-08T06:12:58.669Z,1.40
2018-12-08T06:15:25.059Z,2.53
2018-12-08T06:17:51.436Z,2.10
2018-12-08T06:20:17.848Z,1.70
2018-12-08T06:22:44.208Z,1.57
2018-12-08T06:25:13.282Z,1.33
2018-12-08T06:27:43.723Z,1.40
2018-12-08T06:30:10.129Z,1.23
2018-12-08T06:32:36.549Z,1.47
2018-12-08T06:35:03.115Z,1.50
2018-12-08T06:37:29.489Z,1.43
2018-12-08T06:39:55.888Z,1.23
2018-12-08T06:42:22.250Z,1.90
2018-12-08T06:44:48.625Z,2.87
2018-12-08T06:47:15.057Z,1.20
2018-12-08T06:49:42.210Z,2.73
2018-12-08T06:52:08.633Z,1.53
2018-12-08T06:54:35.053Z,1.27
2018-12-08T06:57:01.461Z,1.53
2018-12-08T06:59:30.818Z,1.30
2018-12-08T07:01:57.291Z,1.00
2018-12-08T07:04:23.670Z,1.70
2018-12-08T07:06:49.998Z,1.53
2018-12-08T07:09:17.450Z,2.60
2018-12-08T07:11:43.785Z,1.33
2018-12-08T07:14:10.191Z,1.03
2018-12-08T07:16:36.660Z,3.80
2018-12-08T07:19:03.090Z,1.67
2018-12-08T07:21:29.530Z,0.90
2018-12-08T07:23:56.225Z,0.80
2018-12-08T07:26:22.618Z,1.03
2018-12-08T07:28:49.113Z,0.77
2018-12-08T07:31:15.826Z,1.00
2018-12-08T07:33:42.258Z,0.90
2018-12-08T07:36:08.697Z,0.87
2018-12-08T07:38:36.393Z,1.10
2018-12-08T07:41:02.926Z,0.70
2018-12-08T07:43:29.424Z,1.30
2018-12-08T07:45:57.751Z,1.47
2018-12-08T07:48:24.271Z,3.00
2018-12-08T07:50:50.659Z,1.10
2018-12-08T07:53:17.117Z,1.10
2018-12-08T07:55:43.546Z,1.17
2018-12-08T07:58:10.015Z,1.10
2018-12-08T08:00:37.238Z,1.13
2018-12-08T08:03:03.698Z,1.10
2018-12-08T08:05:39.850Z,1.40
2018-12-08T08:08:06.440Z,1.10
2018-12-08T08:10:33.008Z,1.20
2018-12-08T08:13:00.822Z,1.57
2018-12-08T08:15:27.353Z,1.30
2018-12-08T08:17:53.832Z,1.30
2018-12-08T08:20:20.320Z,1.13
2018-12-08T08:22:46.753Z,1.00
2018-12-08T08:25:14.436Z,1.37
2018-12-08T08:27:40.908Z,1.33
2018-12-08T08:30:08.281Z,1.00
2018-12-08T08:32:34.679Z,1.50
2018-12-08T08:35:01.444Z,3.20
2018-12-08T08:37:27.949Z,1.63
2018-12-08T08:39:54.454Z,1.37
2018-12-08T08:42:20.895Z,1.57
2018-12-08T08:44:47.244Z,3.20
2018-12-08T08:47:13.654Z,2.13
2018-12-08T08:49:40.113Z,2.90
2018-12-08T08:52:06.502Z,2.23
2018-12-08T08:54:33.419Z,1.63
2018-12-08T08:56:59.985Z,1.40
2018-12-08T08:59:27.384Z,1.87
2018-12-08T09:01:53.870Z,1.50
2018-12-08T09:04:20.273Z,1.40
2018-12-08T09:06:46.670Z,0.90
2018-12-08T09:09:14.737Z,1.37
2018-12-08T09:11:41.978Z,1.57
2018-12-08T09:14:13.246Z,2.60
2018-12-08T09:16:37.409Z,1.50
2018-12-08T09:19:03.801Z,1.83
2018-12-08T09:21:30.225Z,1.30
2018-12-08T09:23:56.610Z,4.40
2018-12-08T09:26:23.057Z,1.17
2018-12-08T09:28:49.448Z,1.83
2018-12-08T09:31:15.949Z,3.27
2018-12-08T09:33:43.667Z,2.40
2018-12-08T09:36:10.481Z,3.50
2018-12-08T09:38:37.061Z,2.77
2018-12-08T09:41:03.444Z,2.73
2018-12-08T09:43:29.945Z,2.07
2018-12-08T09:45:56.428Z,1.70
2018-12-08T09:48:24.020Z,3.13
2018-12-08T09:50:50.485Z,6.93
2018-12-08T09:53:17.291Z,1.70
2018-12-08T09:55:43.833Z,2.53
2018-12-08T09:58:10.243Z,1.63
2018-12-08T10:00:37.121Z,1.73
2018-12-08T10:03:03.607Z,1.50
2018-12-08T10:05:30.072Z,1.90
2018-12-08T10:07:56.505Z,1.87
2018-12-08T10:10:23.019Z,3.10
2018-12-08T10:12:50.622Z,3.07
2018-12-08T10:15:17.136Z,2.33
2018-12-08T10:17:43.580Z,2.97
2018-12-08T10:20:10.095Z,2.33
2018-12-08T10:22:36.697Z,4.67
2018-12-08T10:27:45.990Z,1.63
2018-12-08T10:30:12.574Z,2.37
2018-12-08T10:32:39.044Z,7.33
2018-12-08T10:35:10.066Z,3.27
2018-12-08T10:37:39.896Z,2.27
2018-12-08T10:40:08.208Z,3.60
2018-12-08T10:42:34.704Z,3.93
2018-12-08T10:45:01.742Z,3.30
2018-12-08T10:47:28.621Z,2.23
2018-12-08T10:49:55.142Z,3.03
2018-12-08T10:52:21.713Z,1.63
2018-12-08T10:54:48.141Z,2.10
2018-12-08T10:57:14.809Z,1.97
2018-12-08T10:59:41.338Z,2.47
2018-12-08T11:02:09.863Z,1.63
2018-12-08T11:04:36.321Z,4.40
2018-12-08T11:07:02.760Z,1.47
2018-12-08T11:09:29.747Z,2.13
2018-12-08T11:11:56.304Z,2.77
2018-12-08T11:14:23.430Z,3.70
2018-12-08T11:16:50.049Z,1.53
2018-12-08T11:19:16.681Z,2.33
2018-12-08T11:21:44.165Z,1.63
2018-12-08T11:24:10.844Z,2.80
2018-12-08T11:26:38.527Z,1.70
2018-12-08T11:29:05.029Z,1.93
2018-12-08T11:31:31.459Z,2.20
2018-12-08T11:33:58.015Z,1.33
2018-12-08T11:36:24.703Z,1.50
2018-12-08T11:38:51.126Z,2.47
2018-12-08T11:41:17.938Z,1.37
2018-12-08T11:43:44.471Z,2.87
2018-12-08T11:46:11.310Z,1.17
2018-12-08T11:48:39.191Z,5.30
2018-12-08T11:51:05.737Z,2.60
2018-12-08T11:53:32.331Z,2.77
2018-12-08T11:55:58.933Z,4.37
2018-12-08T11:58:25.574Z,1.30
2018-12-08T12:00:53.489Z,4.20
2018-12-08T12:03:20.545Z,4.43
2018-12-08T12:05:48.130Z,1.40
2018-12-08T12:08:14.703Z,1.37
2018-12-08T12:10:41.302Z,4.97
2018-12-08T12:13:07.774Z,5.50
2018-12-08T12:15:34.792Z,3.23
2018-12-08T12:18:01.307Z,3.23
2018-12-08T12:20:27.789Z,3.47
2018-12-08T12:22:54.334Z,2.37
2018-12-08T12:25:21.564Z,1.93
2018-12-08T12:27:53.341Z,2.10
2018-12-08T12:30:19.807Z,1.80
2018-12-08T12:32:46.401Z,3.10
2018-12-08T12:35:13.114Z,2.40
2018-12-08T12:37:39.693Z,4.23
2018-12-08T12:40:06.349Z,1.60
2018-12-08T12:42:32.829Z,1.40
2018-12-08T12:44:59.470Z,1.57
2018-12-08T12:47:26.231Z,4.00
2018-12-08T12:49:53.259Z,1.60
2018-12-08T12:52:19.861Z,2.40
2018-12-08T12:54:46.478Z,4.47
2018-12-08T12:57:12.913Z,4.43
2018-12-08T12:59:39.336Z,2.83
2018-12-08T13:02:05.887Z,4.60
2018-12-08T13:04:32.468Z,4.17
2018-12-08T13:06:58.939Z,3.23
2018-12-08T13:09:25.495Z,4.33
2018-12-08T13:11:52.274Z,5.73
2018-12-08T13:14:18.735Z,5.77
2018-12-08T13:16:46.365Z,5.87
2018-12-08T13:19:12.872Z,5.20
2018-12-08T13:21:42.432Z,1.93
2018-12-08T13:24:09.125Z,4.50
2018-12-08T13:26:35.938Z,5.53
2018-12-08T13:29:03.612Z,3.70
2018-12-08T13:31:30.450Z,3.67
2018-12-08T13:33:57.040Z,7.67
2018-12-08T13:36:23.470Z,3.53
2018-12-08T13:38:49.976Z,3.93
2018-12-08T13:41:16.485Z,7.23
2018-12-08T13:43:46.970Z,6.00
2018-12-08T13:46:13.592Z,6.03
2018-12-08T13:48:40.627Z,3.00
2018-12-08T13:51:07.404Z,6.17
2018-12-08T13:53:36.854Z,4.33
2018-12-08T13:56:02.996Z,4.50
2018-12-08T13:58:29.516Z,13.20
2018-12-08T14:00:56.039Z,7.03
2018-12-08T14:03:22.724Z,7.03
2018-12-08T14:05:49.255Z,6.43
2018-12-08T14:08:16.858Z,5.33
2018-12-08T14:10:43.624Z,5.37
2018-12-08T14:13:10.185Z,11.57
2018-12-08T14:15:36.677Z,8.70
2018-12-08T14:18:03.167Z,6.10
2018-12-08T14:20:30.576Z,4.93
2018-12-08T14:22:57.102Z,9.93
2018-12-08T14:25:24.439Z,7.97
2018-12-08T14:27:51.051Z,9.23
2018-12-08T14:30:17.596Z,6.47
2018-12-08T14:32:44.526Z,8.13
2018-12-08T14:35:11.059Z,10.23
2018-12-08T14:37:37.458Z,7.93
2018-12-08T14:40:05.495Z,7.97
2018-12-08T14:42:34.272Z,8.40
2018-12-08T14:45:00.831Z,9.73
2018-12-08T14:47:27.270Z,6.80
2018-12-08T14:49:53.816Z,7.10
2018-12-08T14:52:20.275Z,7.93
2018-12-08T14:54:46.867Z,6.20
2018-12-08T14:57:13.934Z,5.27
2018-12-08T14:59:40.518Z,7.03
2018-12-08T15:02:07.011Z,4.93
2018-12-08T15:04:33.528Z,5.10
2018-12-08T15:07:00.058Z,6.17
2018-12-08T15:09:26.502Z,5.93
2018-12-08T15:11:53.347Z,9.60
2018-12-08T15:14:19.844Z,11.07
2018-12-08T15:16:46.601Z,7.00
2018-12-08T15:19:13.278Z,7.77
2018-12-08T15:21:40.077Z,7.47
2018-12-08T15:24:06.610Z,8.13
2018-12-08T15:26:33.143Z,5.97
2018-12-08T15:28:59.692Z,12.67
2018-12-08T15:31:26.175Z,8.57
2018-12-08T15:33:52.620Z,7.60
2018-12-08T15:36:19.112Z,10.57
2018-12-08T15:38:45.559Z,3.23
2018-12-08T15:41:12.097Z,16.43
2018-12-08T15:43:38.805Z,7.93
2018-12-08T15:46:05.305Z,11.60
2018-12-08T15:48:31.852Z,8.23
2018-12-08T15:50:58.386Z,8.33
2018-12-08T15:53:24.855Z,7.07
2018-12-08T15:55:51.370Z,13.47
2018-12-08T15:58:17.945Z,18.70
2018-12-08T16:00:44.897Z,6.77
2018-12-08T16:03:11.419Z,14.17
2018-12-08T16:05:38.185Z,15.60
2018-12-08T16:08:05.584Z,5.73
2018-12-08T16:10:33.138Z,9.27
2018-12-08T16:13:00.820Z,10.20
2018-12-08T16:15:27.477Z,11.50
2018-12-08T16:17:54.319Z,12.00
2018-12-08T16:20:20.983Z,11.03
2018-12-08T16:22:47.544Z,14.07
2018-12-08T16:25:14.247Z,8.73
2018-12-08T16:27:40.979Z,19.37
2018-12-08T16:30:07.813Z,15.23
2018-12-08T16:32:34.542Z,15.87
2018-12-08T16:35:00.912Z,10.27
2018-12-08T16:37:27.518Z,9.37
2018-12-08T16:39:54.033Z,10.77
2018-12-08T16:42:20.637Z,8.50
2018-12-08T16:44:47.289Z,13.77
2018-12-08T16:47:14.085Z,12.80
2018-12-08T16:49:40.746Z,11.50
2018-12-08T16:52:07.287Z,12.67
2018-12-08T16:54:34.485Z,9.67
2018-12-08T16:57:01.076Z,10.10
2018-12-08T16:59:27.614Z,11.13
2018-12-08T17:01:54.230Z,15.73
2018-12-08T17:04:20.964Z,12.73
2018-12-08T17:06:48.099Z,8.77
2018-12-08T17:09:14.779Z,11.90
2018-12-08T17:11:42.226Z,10.47
2018-12-08T17:14:08.838Z,11.33
2018-12-08T17:16:35.562Z,10.30
2018-12-08T17:19:03.341Z,10.93
2018-12-08T17:21:30.005Z,7.97
2018-12-08T17:23:58.173Z,6.07
2018-12-08T17:26:26.215Z,8.90
2018-12-08T17:28:53.556Z,9.67
2018-12-08T17:31:21.208Z,7.00
2018-12-08T17:33:47.784Z,7.03
2018-12-08T17:36:14.350Z,7.60
2018-12-08T17:38:41.023Z,11.87
2018-12-08T17:41:07.654Z,9.40
2018-12-08T17:43:34.308Z,8.43
2018-12-08T17:46:00.924Z,10.00
2018-12-08T17:48:27.442Z,12.87
2018-12-08T17:50:54.055Z,6.70
2018-12-08T17:53:21.201Z,7.73
2018-12-08T17:55:47.591Z,6.53
2018-12-08T17:58:14.066Z,12.10
2018-12-08T18:00:40.624Z,5.60
2018-12-08T18:03:07.964Z,7.20
2018-12-08T18:05:34.841Z,12.47
2018-12-08T18:08:01.281Z,4.53
2018-12-08T18:10:28.245Z,5.63
2018-12-08T18:12:54.689Z,7.13
2018-12-08T18:15:22.362Z,13.70
2018-12-08T18:17:49.080Z,7.47
2018-12-08T18:20:15.819Z,9.33
2018-12-08T18:22:42.394Z,15.07
2018-12-08T18:25:08.910Z,9.97
2018-12-08T18:27:35.276Z,11.70
2018-12-08T18:30:02.093Z,6.50
2018-12-08T18:32:29.197Z,6.77
2018-12-08T18:34:56.066Z,6.83
2018-12-08T18:37:22.754Z,9.50
2018-12-08T18:39:49.228Z,4.47
2018-12-08T18:42:15.685Z,5.13
2018-12-08T18:44:42.397Z,4.07
2018-12-08T18:47:09.016Z,6.53
2018-12-08T18:49:35.474Z,8.50
2018-12-08T18:52:02.006Z,2.67
2018-12-08T18:54:28.503Z,2.27
2018-12-08T18:56:54.998Z,6.70
2018-12-08T18:59:21.630Z,2.40
2018-12-08T19:01:48.046Z,3.27
2018-12-08T19:04:14.466Z,4.17
2018-12-08T19:06:41.013Z,3.83
2018-12-08T19:09:07.730Z,2.07
2018-12-08T19:11:34.413Z,2.77
2018-12-08T19:14:00.935Z,6.50
2018-12-08T19:16:27.521Z,3.37
2018-12-08T19:18:54.166Z,6.73
2018-12-08T19:21:20.954Z,8.43
2018-12-08T19:23:47.479Z,4.57
2018-12-08T19:26:14.377Z,4.33
2018-12-08T19:28:46.256Z,6.37
2018-12-08T19:31:12.834Z,4.90
2018-12-08T19:33:39.362Z,2.33
2018-12-08T19:36:05.850Z,2.67
2018-12-08T19:38:32.277Z,4.77
2018-12-08T19:40:59.959Z,3.77
2018-12-08T19:43:27.351Z,3.10
2018-12-08T19:45:54.285Z,3.70
2018-12-08T19:48:20.749Z,1.90
2018-12-08T19:50:48.128Z,2.23
2018-12-08T19:53:14.590Z,3.77
2018-12-08T19:55:40.988Z,1.60
2018-12-08T19:58:07.370Z,3.00
2018-12-08T20:00:33.838Z,2.27
2018-12-08T20:03:00.284Z,7.80
2018-12-08T20:05:26.689Z,4.53
2018-12-08T20:07:53.090Z,3.20
2018-12-08T20:10:19.936Z,4.57
2018-12-08T20:12:46.546Z,2.83
2018-12-08T20:15:13.141Z,4.93
2018-12-08T20:17:39.687Z,3.60
2018-12-08T20:20:06.318Z,7.50
2018-12-08T20:22:32.955Z,7.20
2018-12-08T20:24:59.557Z,4.37
2018-12-08T20:27:30.528Z,2.23
2018-12-08T20:29:57.807Z,3.57
2018-12-08T20:32:24.727Z,4.33
2018-12-08T20:34:52.638Z,2.93
2018-12-08T20:37:20.208Z,1.50
2018-12-08T20:39:46.718Z,1.93
2018-12-08T20:42:13.505Z,1.40
2018-12-08T20:44:40.105Z,2.70
2018-12-08T20:47:06.679Z,3.07
2018-12-08T20:53:16.496Z,1.47
2018-12-08T20:55:43.084Z,1.20
2018-12-08T20:58:09.584Z,1.07
2018-12-08T21:00:37.670Z,1.30
2018-12-08T21:03:05.475Z,2.40
2018-12-08T21:05:31.939Z,1.00
2018-12-08T21:07:58.390Z,1.43
2018-12-08T21:10:24.865Z,0.90
2018-12-08T21:12:51.483Z,1.67
2018-12-08T21:15:18.109Z,1.40
2018-12-08T21:17:44.550Z,2.27
2018-12-08T21:20:11.286Z,1.57
2018-12-08T21:22:37.907Z,2.03
2018-12-08T21:25:04.664Z,1.60
2018-12-08T21:27:31.575Z,2.00
2018-12-08T21:29:58.085Z,1.80
2018-12-08T21:32:26.183Z,1.33
2018-12-08T21:34:53.594Z,4.73
2018-12-08T21:37:21.886Z,3.97
2018-12-08T21:39:48.520Z,5.17
2018-12-08T21:42:14.942Z,1.50
2018-12-08T21:44:42.286Z,2.30
2018-12-08T21:47:09.570Z,28.33
2018-12-08T21:49:36.278Z,5.67
2018-12-08T21:52:02.906Z,4.13
2018-12-08T21:54:29.384Z,4.33
2018-12-08T21:56:55.858Z,2.10
2018-12-08T21:59:22.367Z,2.17
2018-12-08T22:01:48.911Z,3.43
2018-12-08T22:04:15.679Z,2.77
2018-12-08T22:06:42.447Z,2.73
2018-12-08T22:09:09.316Z,4.20
2018-12-08T22:11:35.990Z,3.47
2018-12-08T22:14:02.491Z,2.57
2018-12-08T22:16:28.993Z,1.97
2018-12-08T22:18:55.604Z,5.23
2018-12-08T22:21:22.105Z,5.47
2018-12-08T22:23:48.976Z,3.63
2018-12-08T22:26:15.449Z,5.30
2018-12-08T22:28:42.797Z,2.13
2018-12-08T22:31:09.237Z,5.07
2018-12-08T22:33:36.057Z,5.67
2018-12-08T22:36:03.697Z,2.70
2018-12-08T22:38:30.201Z,3.23
2018-12-08T22:40:57.001Z,3.03
2018-12-08T22:43:23.769Z,2.20
2018-12-08T22:45:50.289Z,4.70
2018-12-08T22:48:16.807Z,2.77
2018-12-08T22:50:43.525Z,4.40
2018-12-08T22:53:09.991Z,3.93
2018-12-08T22:55:36.994Z,3.97
2018-12-08T22:58:03.865Z,7.40
2018-12-08T23:03:06.875Z,4.37
2018-12-08T23:05:33.292Z,4.80
2018-12-08T23:07:59.793Z,3.10
2018-12-08T23:10:26.502Z,7.37
2018-12-08T23:12:52.958Z,4.13
2018-12-08T23:15:19.446Z,4.20
2018-12-08T23:17:45.821Z,5.03
2018-12-08T23:20:12.346Z,6.70
2018-12-08T23:22:38.731Z,4.73
2018-12-08T23:25:05.940Z,5.47
2018-12-08T23:27:47.504Z,4.77
2018-12-08T23:30:13.967Z,7.97
2018-12-08T23:32:40.450Z,5.67
2018-12-08T23:35:07.028Z,4.57
2018-12-08T23:37:33.451Z,19.23
2018-12-08T23:39:59.871Z,4.07
2018-12-08T23:42:26.335Z,7.23
2018-12-08T23:44:52.785Z,8.13
2018-12-08T23:47:19.234Z,9.40
2018-12-08T23:49:45.722Z,3.07
2018-12-08T23:52:12.194Z,2.60
2018-12-08T23:54:38.895Z,3.57
2018-12-08T23:57:05.285Z,4.23
2018-12-08T23:59:31.756Z,6.03
